Time;durP1;ratioP1;P1;durP2;ratioP2;P2;SDS_P1;SDS_P2;PMS_P1;PMS_P2;Temp;Humidity;BMP_temperature;BMP_pressure;BME280_temperature;BME280_humidity;BME280_pressure;Samples;Min_cycle;Max_cycle;Signal;HPM_P1;HPM_P2
2021/10/09 00:02:11;;;;;;;21.95;10.02;;;;;;;1.32;88.62;101366.28;5007414;28;20093;-85
2021/10/09 00:05:13;;;;;;;22.25;8.98;;;;;;;1.50;89.40;101399.66;5030336;28;20046;-86
2021/10/09 00:08:16;;;;;;;18.35;8.88;;;;;;;1.48;88.67;101401.28;5008913;28;20066;-86
2021/10/09 00:11:02;;;;;;;19.60;7.88;;;;;;;1.49;88.89;101400.47;5026867;28;20053;-85
2021/10/09 00:13:49;;;;;;;17.50;8.82;;;;;;;1.53;89.54;101394.59;5040617;28;20038;-86
2021/10/09 00:16:36;;;;;;;27.70;10.07;;;;;;;1.68;89.43;101414.94;5010935;28;20094;-86
2021/10/09 00:19:37;;;;;;;21.80;10.48;;;;;;;1.47;88.76;101363.38;5027577;28;20049;-85
2021/10/09 00:22:23;;;;;;;20.58;8.93;;;;;;;1.48;89.15;101391.84;5039911;28;20034;-86
2021/10/09 00:25:09;;;;;;;17.38;8.43;;;;;;;1.39;88.64;101370.84;5025721;28;20054;-86
2021/10/09 00:27:59;;;;;;;18.55;8.75;;;;;;;1.48;88.84;101380.63;5026647;28;20041;-86
2021/10/09 00:30:45;;;;;;;17.50;8.77;;;;;;;1.54;89.13;101391.19;5024019;28;20069;-86
2021/10/09 00:33:32;;;;;;;18.38;8.30;;;;;;;1.43;89.63;101397.63;5022113;28;20054;-86
2021/10/09 00:36:17;;;;;;;17.05;8.38;;;;;;;1.62;89.60;101441.41;5009766;28;20113;-86
2021/10/09 00:39:05;;;;;;;17.63;8.43;;;;;;;1.34;90.14;101405.94;5040640;28;20362;-86
2021/10/09 00:41:51;;;;;;;17.00;8.48;;;;;;;1.17;90.24;101380.38;5038264;28;20102;-86
2021/10/09 00:44:43;;;;;;;19.48;9.10;;;;;;;1.63;90.59;101427.69;5039952;28;20030;-87
2021/10/09 00:47:32;;;;;;;19.20;9.23;;;;;;;1.34;90.66;101393.91;5027203;28;20037;-87
2021/10/09 00:50:25;;;;;;;21.58;9.80;;;;;;;1.51;91.03;101429.81;5040571;28;20046;-87
2021/10/09 00:53:24;;;;;;;20.73;8.63;;;;;;;1.09;90.73;101361.13;5023959;28;20064;-87
2021/10/09 00:56:31;;;;;;;19.88;9.65;;;;;;;1.55;91.26;101440.31;5028747;28;20060;-87
2021/10/09 00:59:28;;;;;;;19.73;9.55;;;;;;;1.70;90.90;101455.50;5028179;28;20041;-86
2021/10/09 01:02:18;;;;;;;16.38;9.77;;;;;;;1.33;90.74;101393.84;5023727;28;20041;-86
2021/10/09 01:05:25;;;;;;;16.33;8.23;;;;;;;1.36;90.33;101391.38;5040218;28;20049;-87
2021/10/09 01:08:24;;;;;;;;;;;;;;;1.79;90.84;101453.25;5039689;28;20045;-85
2021/10/09 01:11:17;;;;;;;26.40;10.07;;;;;;;1.63;90.11;101430.28;5027173;28;19928;-86
2021/10/09 01:14:03;;;;;;;18.30;10.32;;;;;;;1.66;89.97;101430.38;5009757;28;20057;-87
2021/10/09 01:16:52;;;;;;;17.40;9.18;;;;;;;1.49;89.73;101391.00;5009411;28;20080;-86
2021/10/09 01:19:39;;;;;;;17.05;9.05;;;;;;;1.51;89.99;101394.53;5040185;28;20046;-86
2021/10/09 01:22:26;;;;;;;18.58;8.93;;;;;;;1.53;89.66;101395.47;5025480;28;20068;-86
2021/10/09 01:25:14;;;;;;;20.13;9.70;;;;;;;1.51;89.75;101391.94;5024741;28;20061;-86
2021/10/09 01:28:03;;;;;;;14.35;8.15;;;;;;;1.44;89.96;101391.69;5025207;28;20033;-87
2021/10/09 01:30:53;;;;;;;21.40;9.98;;;;;;;1.60;89.56;101387.13;5011036;28;20129;-85
2021/10/09 01:33:43;;;;;;;18.33;9.05;;;;;;;1.69;89.98;101416.69;5008564;28;20053;-86
2021/10/09 01:36:31;;;;;;;19.58;9.70;;;;;;;1.48;90.03;101380.63;5037024;28;20054;-86
2021/10/09 01:39:52;;;;;;;17.48;9.10;;;;;;;1.84;89.95;101456.00;5023441;28;20088;-86
2021/10/09 01:42:53;;;;;;;19.95;9.75;;;;;;;1.72;90.46;101448.66;5024623;28;20041;-85
2021/10/09 01:45:46;;;;;;;17.23;8.98;;;;;;;1.52;90.80;101396.28;5023796;28;20052;-86
2021/10/09 01:48:41;;;;;;;17.40;9.55;;;;;;;1.22;90.23;101354.72;5007175;28;20050;-86
2021/10/09 01:51:31;;;;;;;15.93;8.68;;;;;;;1.52;89.92;101411.78;5024169;28;20053;-86
2021/10/09 01:54:32;;;;;;;19.27;9.35;;;;;;;1.40;90.60;101401.00;5027204;28;20080;-86
2021/10/09 01:57:23;;;;;;;13.10;8.02;;;;;;;1.51;90.30;101416.91;5039274;28;20033;-86
2021/10/09 02:00:11;;;;;;;17.15;8.23;;;;;;;1.27;89.92;101385.84;4995434;28;20053;-86
2021/10/09 02:03:23;;;;;;;21.65;9.63;;;;;;;1.20;90.66;101387.31;5009677;28;20030;-86
2021/10/09 02:06:34;;;;;;;21.05;10.35;;;;;;;1.42;91.04;101422.59;5028911;28;20527;-86
2021/10/09 02:09:57;;;;;;;18.83;8.70;;;;;;;1.10;90.95;101338.78;5021575;28;20170;-87
2021/10/09 02:13:06;;;;;;;18.33;8.98;;;;;;;1.32;90.39;101400.72;4976428;28;20042;-86
2021/10/09 02:16:07;;;;;;;19.40;9.23;;;;;;;1.09;90.81;101353.38;5006715;28;20638;-86
2021/10/09 02:26:19;;;;;;;16.73;8.95;;;;;;;1.05;91.18;101376.44;5019119;28;20115;-86
2021/10/09 02:30:16;;;;;;;19.23;10.80;;;;;;;1.14;91.23;101372.50;5014552;28;20094;-86
2021/10/09 02:33:33;;;;;;;18.30;9.02;;;;;;;0.88;91.57;101345.72;5006792;28;20037;-87
2021/10/09 02:36:37;;;;;;;20.25;10.10;;;;;;;1.07;91.34;101386.00;5006721;28;20033;-86
2021/10/09 02:40:34;;;;;;;18.45;10.55;;;;;;;1.60;91.12;101432.75;5003017;28;20038;-87
2021/10/09 02:44:04;;;;;;;18.75;9.82;;;;;;;1.47;90.85;101448.59;5007209;28;20083;-86
2021/10/09 02:47:19;;;;;;;22.38;10.57;;;;;;;0.93;91.28;101364.81;5016911;28;20102;-86
2021/10/09 02:50:14;;;;;;;13.48;8.02;;;;;;;1.43;91.82;101428.63;5003774;28;20042;-86
2021/10/09 02:53:11;;;;;;;22.48;10.35;;;;;;;1.25;91.65;101410.75;4988860;28;20088;-86
2021/10/09 02:56:23;;;;;;;20.10;10.82;;;;;;;1.33;91.53;101399.91;4989933;28;20031;-87
2021/10/09 02:59:24;;;;;;;17.63;9.02;;;;;;;1.38;91.37;101410.41;5006345;28;20042;-86
2021/10/09 03:02:10;;;;;;;19.20;9.50;;;;;;;1.09;91.19;101393.78;5004676;28;20038;-86
2021/10/09 03:05:18;;;;;;;17.00;10.27;;;;;;;0.84;91.92;101355.84;4990101;28;20038;-87
2021/10/09 03:08:10;;;;;;;18.30;10.40;;;;;;;1.29;91.38;101426.41;5018431;28;20046;-86
2021/10/09 03:11:27;;;;;;;26.85;10.75;;;;;;;1.26;92.66;101426.28;5021241;28;20046;-86
2021/10/09 03:14:19;;;;;;;17.60;10.90;;;;;;;0.78;92.50;101353.91;5018116;28;20037;-86
2021/10/09 03:17:51;;;;;;;34.42;24.83;;;;;;;1.07;92.68;101421.22;4997569;28;20101;-86
2021/10/09 03:20:55;;;;;;;30.77;19.55;;;;;;;0.77;92.61;101346.09;5009734;28;20058;-86
2021/10/09 03:24:01;;;;;;;28.75;14.55;;;;;;;1.18;92.81;101427.72;5021306;28;20046;-86
2021/10/09 03:27:14;;;;;;;19.30;10.60;;;;;;;1.04;92.68;101403.97;5011822;28;20057;-86
2021/10/09 03:30:26;;;;;;;21.52;11.70;;;;;;;1.06;92.54;101396.25;4999535;28;20110;-85
2021/10/09 03:33:30;;;;;;;19.75;10.95;;;;;;;0.88;92.79;101368.94;5009831;28;20042;-86
2021/10/09 03:41:16;;;;;;;24.00;13.23;;;;;;;1.32;92.63;101431.69;5153644;23;20045;-85
2021/10/09 03:55:31;;;;;;;25.20;12.82;;;;;;;1.11;92.78;101392.16;5288120;22;20053;-85
2021/10/09 03:59:06;;;;;;;17.98;10.48;;;;;;;1.00;92.42;101389.16;5081117;28;20060;-86
2021/10/09 04:05:47;;;;;;;20.65;11.02;;;;;;;0.94;92.80;101399.22;5127200;22;20045;-85
2021/10/09 04:08:50;;;;;;;18.13;10.25;;;;;;;0.85;93.22;101386.88;5080301;28;20059;-85
2021/10/09 04:11:37;;;;;;;20.48;10.45;;;;;;;0.72;92.88;101363.13;5077631;28;20057;-85
2021/10/09 04:14:50;;;;;;;24.13;12.07;;;;;;;0.76;92.93;101365.88;5080648;28;20060;-85
2021/10/09 04:18:02;;;;;;;21.52;11.32;;;;;;;0.80;92.89;101393.53;5074791;23;20068;-85
2021/10/09 04:21:19;;;;;;;16.80;10.30;;;;;;;0.71;92.54;101385.44;5039792;28;20039;-84
2021/10/09 05:00:37;;;;;;;25.58;13.00;;;;;;;0.54;94.55;101443.19;5901680;22;20005;-86
2021/10/09 06:50:16;;;;;;;23.27;14.95;;;;;;;4.20;83.29;101513.66;4976957;28;20043;-86
2021/10/09 07:00:56;;;;;;;19.92;10.43;;;;;;;4.92;80.12;101497.41;4921838;29;20044;-90
2021/10/09 07:04:50;;;;;;;18.83;11.18;;;;;;;5.34;79.63;101503.59;4898322;29;20095;-90
2021/10/09 07:13:38;;;;;;;15.60;10.65;;;;;;;5.77;76.86;101486.34;4884051;29;20072;-89
2021/10/09 07:16:25;;;;;;;26.50;13.30;;;;;;;6.03;75.79;101499.91;4871944;29;20122;-89
2021/10/09 07:19:12;;;;;;;19.42;10.43;;;;;;;5.93;74.28;101477.16;4856764;29;20058;-88
2021/10/09 07:22:05;;;;;;;26.05;11.02;;;;;;;6.41;74.98;101472.03;4857488;29;20435;-91
2021/10/09 07:24:53;;;;;;;21.13;12.27;;;;;;;6.46;71.55;101467.78;4846826;29;20054;-92
2021/10/09 07:27:39;;;;;;;23.17;14.32;;;;;;;6.84;71.97;101513.59;4846454;29;20110;-92
2021/10/09 07:30:26;;;;;;;19.00;13.95;;;;;;;7.01;71.44;101488.69;4829744;29;20122;-95
2021/10/09 07:33:11;;;;;;;22.05;13.65;;;;;;;7.63;69.59;101513.94;4824489;29;20074;-91
2021/10/09 07:36:01;;;;;;;16.83;10.90;;;;;;;7.86;68.04;101472.50;4824140;29;20445;-89
2021/10/09 07:38:49;;;;;;;;;;;;;;;8.29;67.37;101517.41;4850982;29;20092;-92
2021/10/09 07:41:34;;;;;;;15.35;9.88;;;;;;;8.13;67.23;101513.72;4880466;29;20416;-89
2021/10/09 07:44:23;;;;;;;19.95;10.60;;;;;;;8.69;65.44;101510.00;4884910;29;20049;-91
2021/10/09 07:47:09;;;;;;;18.55;10.23;;;;;;;9.23;62.46;101511.31;4873732;29;20450;-96
2021/10/09 07:49:53;;;;;;;16.92;10.77;;;;;;;9.45;61.30;101491.44;4865458;29;20468;-95
2021/10/09 07:52:38;;;;;;;15.65;10.40;;;;;;;9.71;63.66;101512.50;4867497;29;20057;-94
2021/10/09 07:55:23;;;;;;;20.33;11.43;;;;;;;9.86;63.61;101506.50;4865149;29;20052;-92
2021/10/09 07:58:07;;;;;;;14.27;9.13;;;;;;;10.11;61.50;101513.59;4878072;29;20064;-94
2021/10/09 08:00:51;;;;;;;15.93;9.90;;;;;;;9.98;61.29;101525.75;4878209;29;20057;-93
2021/10/09 08:03:36;;;;;;;27.83;17.33;;;;;;;10.45;60.31;101509.34;4883696;29;20052;-93
2021/10/09 08:06:20;;;;;;;26.65;16.90;;;;;;;10.65;58.60;101526.84;4884263;29;20391;-92
2021/10/09 08:09:04;;;;;;;14.20;9.52;;;;;;;10.43;59.23;101516.34;4901256;29;20101;-93
2021/10/09 08:11:49;;;;;;;16.40;9.20;;;;;;;10.97;57.90;101529.53;4903146;29;20055;-94
2021/10/09 08:14:34;;;;;;;15.50;9.25;;;;;;;11.18;55.94;101526.03;4941878;29;20066;-94
2021/10/09 08:17:18;;;;;;;12.35;8.75;;;;;;;11.02;57.17;101527.78;4940879;29;20052;-91
2021/10/09 08:20:05;;;;;;;13.75;8.43;;;;;;;11.34;55.83;101530.41;4941276;29;20377;-91
2021/10/09 08:23:03;;;;;;;15.07;8.63;;;;;;;11.05;56.12;101526.91;4941934;29;20043;-93
2021/10/09 08:26:11;;;;;;;15.70;8.63;;;;;;;11.41;55.54;101523.41;4941667;29;20051;-90
2021/10/09 08:41:13;;;;;;;15.48;9.13;;;;;;;11.87;54.02;101534.69;4939907;29;20047;-83
2021/10/09 08:43:58;;;;;;;16.40;8.73;;;;;;;12.25;53.35;101512.66;4940930;29;20043;-82
2021/10/09 08:46:42;;;;;;;14.93;8.30;;;;;;;12.35;52.47;101532.75;4941415;29;20052;-82
2021/10/09 08:49:27;;;;;;;14.30;9.45;;;;;;;12.58;51.48;101534.38;4941390;29;20056;-82
2021/10/09 08:52:19;;;;;;;10.23;7.50;;;;;;;12.89;53.33;101527.16;4941682;29;20131;-82
2021/10/09 08:55:21;;;;;;;14.48;7.30;;;;;;;12.99;50.90;101517.44;4932084;29;20043;-82
2021/10/09 08:58:12;;;;;;;10.68;6.90;;;;;;;13.19;51.41;101523.38;4960699;29;20039;-81
2021/10/09 09:39:18;;;;;;;5.47;3.53;;;;;;;13.54;42.97;101514.34;4962449;28;20097;-80
2021/10/09 09:42:03;;;;;;;9.65;3.90;;;;;;;13.91;42.19;101509.53;4977092;28;20047;-81
2021/10/09 09:44:55;;;;;;;12.13;4.35;;;;;;;13.43;43.69;101524.09;4962865;28;20039;-81
2021/10/09 09:47:41;;;;;;;13.13;4.03;;;;;;;13.64;42.16;101517.75;4962885;28;20073;-80
2021/10/09 09:50:27;;;;;;;13.82;4.18;;;;;;;13.48;41.53;101523.16;4962861;28;20379;-81
2021/10/09 09:53:13;;;;;;;7.85;3.88;;;;;;;13.37;41.54;101518.91;4964160;28;20042;-81
2021/10/09 09:55:58;;;;;;;8.23;4.28;;;;;;;13.95;41.72;101508.59;4977761;28;20424;-78
2021/10/09 09:58:50;;;;;;;10.15;4.60;;;;;;;13.69;41.86;101514.19;4964643;28;20038;-78
2021/10/09 10:01:35;;;;;;;9.15;4.25;;;;;;;13.64;40.95;101517.75;4978356;28;20419;-81
2021/10/09 10:04:21;;;;;;;4.43;3.50;;;;;;;14.10;42.70;101525.09;4950977;28;20055;-80
2021/10/09 10:07:05;;;;;;;7.18;5.07;;;;;;;13.71;41.70;101519.41;4963883;28;20042;-79
2021/10/09 10:09:50;;;;;;;8.32;4.28;;;;;;;13.44;40.92;101515.31;4978473;28;20115;-79
2021/10/09 10:12:37;;;;;;;10.57;6.75;;;;;;;13.43;42.75;101500.41;4977275;28;20435;-78
2021/10/09 10:15:26;;;;;;;5.50;3.80;;;;;;;13.51;41.70;101514.34;4963585;28;20089;-78
2021/10/09 10:18:13;;;;;;;10.15;4.18;;;;;;;13.56;41.50;101491.50;4963728;28;20046;-79
2021/10/09 10:20:57;;;;;;;9.70;3.95;;;;;;;14.20;42.72;101497.75;4963595;28;20055;-76
2021/10/09 10:23:46;;;;;;;8.18;3.88;;;;;;;13.36;41.24;101496.97;4977872;28;20130;-77
2021/10/09 10:26:32;;;;;;;5.22;4.00;;;;;;;13.68;40.90;101495.75;4963449;28;20050;-78
2021/10/09 10:29:15;;;;;;;8.35;5.03;;;;;;;13.95;41.17;101490.16;4975276;28;20054;-79
2021/10/09 10:32:14;;;;;;;15.63;4.90;;;;;;;14.03;40.22;101488.28;4976952;28;20046;-77
2021/10/09 10:35:30;;;;;;;8.13;5.45;;;;;;;13.82;41.16;101495.63;4963722;28;20101;-79
2021/10/09 10:38:23;;;;;;;11.65;7.22;;;;;;;13.77;40.71;101488.63;4978251;28;20038;-78
2021/10/09 10:41:10;;;;;;;7.95;4.10;;;;;;;13.77;42.13;101490.38;4949829;28;20432;-80
2021/10/09 10:43:57;;;;;;;10.30;6.22;;;;;;;14.30;40.74;101477.41;4963852;28;20039;-76
2021/10/09 10:46:45;;;;;;;6.55;3.70;;;;;;;13.93;38.88;101489.31;4963325;28;20042;-77
2021/10/09 10:49:56;;;;;;;9.13;5.55;;;;;;;13.66;39.29;101476.47;4977660;28;20039;-79
2021/10/09 10:53:03;;;;;;;8.85;3.63;;;;;;;14.57;39.54;101478.81;4977114;28;20043;-80
2021/10/09 10:56:10;;;;;;;8.77;3.60;;;;;;;14.38;39.61;101486.09;4963169;28;20038;-78
2021/10/09 10:59:26;;;;;;;13.40;7.20;;;;;;;13.49;38.00;101481.94;4963637;28;20047;-76
2021/10/09 11:02:19;;;;;;;16.02;4.03;;;;;;;13.62;38.70;101461.63;4963168;28;20043;-80
2021/10/09 11:05:05;;;;;;;5.80;3.65;;;;;;;13.60;38.88;101479.19;4976469;28;20062;-80
2021/10/09 11:07:49;;;;;;;9.63;5.30;;;;;;;13.75;39.38;101458.81;4950057;28;20054;-80
2021/10/09 11:10:45;;;;;;;11.07;5.05;;;;;;;13.58;39.74;101471.28;4977738;28;20086;-80
2021/10/09 11:13:30;;;;;;;6.40;3.58;;;;;;;14.03;39.19;101455.81;4977248;28;20352;-80
2021/10/09 11:16:14;;;;;;;9.80;5.18;;;;;;;13.42;38.03;101439.03;4963629;28;20061;-89
2021/10/09 11:18:59;;;;;;;6.35;4.07;;;;;;;14.37;38.57;101458.88;4977459;28;20054;-89
2021/10/09 11:21:53;;;;;;;6.93;3.80;;;;;;;13.84;38.83;101455.16;4963455;28;20051;-88
2021/10/09 11:24:41;;;;;;;6.65;3.88;;;;;;;13.65;39.20;101458.91;4977485;28;20046;-91
2021/10/09 11:27:35;;;;;;;10.30;4.45;;;;;;;13.73;39.30;101462.34;4961483;28;20050;-88
2021/10/09 11:30:20;;;;;;;15.93;7.38;;;;;;;14.10;39.71;101456.59;4960955;28;20038;-91
2021/10/09 11:33:04;;;;;;;22.92;10.45;;;;;;;13.95;39.44;101449.78;4960876;28;20043;-88
2021/10/09 11:35:49;;;;;;;11.32;5.47;;;;;;;13.84;40.32;101462.22;4947459;28;20039;-89
2021/10/09 11:38:33;;;;;;;20.63;9.02;;;;;;;13.81;39.93;101449.94;4975222;28;20086;-88
2021/10/09 11:41:22;;;;;;;24.63;12.75;;;;;;;13.73;40.93;101449.19;4977854;28;20046;-88
2021/10/09 11:44:21;;;;;;;14.20;6.07;;;;;;;13.66;39.47;101445.75;4981350;28;20039;-88
2021/10/09 11:47:33;;;;;;;14.82;6.95;;;;;;;13.50;39.58;101441.56;4963699;28;20059;-89
2021/10/09 11:56:42;;;;;;;46.40;22.42;;;;;;;13.90;40.34;101434.03;4945710;28;20063;-89
2021/10/09 11:59:38;;;;;;;45.97;16.42;;;;;;;13.63;39.11;101437.88;4978758;28;20412;-93
2021/10/09 12:02:35;;;;;;;23.00;7.60;;;;;;;13.66;41.68;101427.31;4964424;28;20050;-88
2021/10/09 12:05:20;;;;;;;19.38;7.72;;;;;;;13.84;40.36;101433.25;4980457;28;20093;-90
2021/10/09 12:08:18;;;;;;;14.27;6.03;;;;;;;13.95;38.69;101428.72;4980982;28;20047;-89
2021/10/09 12:11:29;;;;;;;17.00;5.57;;;;;;;13.51;40.16;101430.13;4966186;28;20042;-88
2021/10/09 12:14:13;;;;;;;10.48;4.07;;;;;;;13.07;39.46;101400.75;4968092;28;20058;-90
2021/10/09 12:16:58;;;;;;;15.20;6.30;;;;;;;13.16;39.96;101433.09;4980351;28;20047;-88
2021/10/09 12:19:43;;;;;;;6.72;3.95;;;;;;;13.02;40.63;101422.72;4980789;28;20117;-90
2021/10/09 12:22:38;;;;;;;6.97;4.03;;;;;;;13.43;40.86;101424.09;4965727;28;20280;-89
2021/10/09 12:25:26;;;;;;;17.35;7.05;;;;;;;13.20;41.24;101426.94;4979786;28;20039;-90
2021/10/09 12:28:14;;;;;;;6.40;4.35;;;;;;;13.15;40.89;101434.00;4965549;28;20051;-91
2021/10/09 12:30:59;;;;;;;11.32;4.55;;;;;;;12.72;40.74;101423.88;4965494;28;20050;-92
2021/10/09 12:33:43;;;;;;;11.15;4.57;;;;;;;12.60;41.30;101416.94;4965591;28;20117;-90
2021/10/09 12:36:38;;;;;;;18.52;10.32;;;;;;;12.83;41.48;101425.50;4965516;28;20039;-93
2021/10/09 12:39:25;;;;;;;27.23;13.77;;;;;;;12.97;41.35;101421.91;4965665;28;20049;-90
2021/10/09 12:42:14;;;;;;;47.95;27.35;;;;;;;13.02;40.86;101425.34;4979886;28;20062;-90
2021/10/09 12:45:00;;;;;;;11.93;7.93;;;;;;;12.49;40.47;101410.91;4980338;28;20054;-89
2021/10/09 12:47:44;;;;;;;60.25;35.67;;;;;;;12.63;42.11;101407.28;4979909;28;20047;-91
2021/10/09 12:50:33;;;;;;;16.90;10.82;;;;;;;12.73;40.36;101405.44;4979756;28;20068;-91
2021/10/09 12:53:17;;;;;;;26.73;9.27;;;;;;;12.58;41.22;101416.09;4979018;28;20048;-89
2021/10/09 12:56:01;;;;;;;13.45;6.90;;;;;;;12.54;40.06;101404.72;4965446;28;20043;-93
2021/10/09 12:58:46;;;;;;;8.60;4.53;;;;;;;12.35;41.42;101413.66;4965116;28;20049;-90
2021/10/09 13:01:30;;;;;;;11.65;6.25;;;;;;;12.39;40.49;101407.50;4979563;28;20428;-89
2021/10/09 13:04:15;;;;;;;20.92;8.55;;;;;;;12.31;41.17;101401.41;4951606;28;20039;-91
2021/10/09 13:06:59;;;;;;;35.85;16.35;;;;;;;12.30;42.66;101395.28;4979397;28;20428;-90
2021/10/09 13:09:43;;;;;;;20.00;10.80;;;;;;;12.14;42.23;101397.13;4965393;28;20054;-91
2021/10/09 13:12:28;;;;;;;20.17;8.50;;;;;;;12.05;42.00;101401.56;4965290;28;20367;-90
2021/10/09 13:15:17;;;;;;;31.33;15.57;;;;;;;12.18;42.69;101397.09;4964985;28;20054;-90
2021/10/09 13:18:01;;;;;;;16.30;6.35;;;;;;;12.20;41.85;101382.22;4968565;28;20047;-90
2021/10/09 13:20:46;;;;;;;12.43;6.75;;;;;;;12.15;42.56;101384.88;4979534;28;20113;-91
2021/10/09 13:23:33;;;;;;;32.67;17.27;;;;;;;12.03;43.80;101380.59;4964851;28;20571;-91
2021/10/09 13:26:18;;;;;;;18.95;8.23;;;;;;;11.99;43.20;101386.75;4978596;28;20058;-91
2021/10/09 13:29:03;;;;;;;51.35;24.92;;;;;;;11.97;43.68;101377.13;4964790;28;20091;-91
2021/10/09 13:31:47;;;;;;;54.53;27.90;;;;;;;12.02;43.94;101377.94;4964597;28;20122;-94
2021/10/09 13:34:32;;;;;;;19.10;9.65;;;;;;;11.86;44.02;101364.03;4978187;28;20431;-90
2021/10/09 13:37:20;;;;;;;15.90;8.65;;;;;;;11.81;44.50;101368.41;4964946;28;20038;-90
2021/10/09 13:40:05;;;;;;;22.00;9.27;;;;;;;11.85;44.32;101363.16;4964985;28;20478;-93
2021/10/09 13:42:49;;;;;;;14.10;5.45;;;;;;;12.00;44.00;101371.84;4964449;28;20046;-92
2021/10/09 13:45:34;;;;;;;27.77;12.07;;;;;;;11.77;43.37;101371.94;4964905;28;20042;-94
2021/10/09 13:48:18;;;;;;;29.40;10.88;;;;;;;11.65;42.69;101344.00;4964583;28;20038;-92
2021/10/09 13:51:04;;;;;;;17.00;4.80;;;;;;;11.66;43.35;101367.59;4978635;28;20039;-95
2021/10/09 13:53:48;;;;;;;27.88;13.00;;;;;;;11.67;43.89;101361.50;4951357;28;20416;-93
2021/10/09 13:56:33;;;;;;;25.23;12.57;;;;;;;11.56;43.73;101352.78;4977882;28;20367;-94
2021/10/09 13:59:17;;;;;;;22.73;10.60;;;;;;;11.57;43.71;101364.16;4964250;28;20051;-92
2021/10/09 14:02:05;;;;;;;15.93;8.38;;;;;;;11.42;43.67;101352.84;4978512;28;20043;-91
2021/10/09 14:04:50;;;;;;;20.40;8.10;;;;;;;11.49;44.56;101350.22;4949704;28;20034;-93
2021/10/09 14:07:34;;;;;;;20.20;8.55;;;;;;;11.46;43.45;101359.81;4964109;28;20043;-93
2021/10/09 14:10:19;;;;;;;11.95;6.60;;;;;;;11.42;43.10;101354.59;4964069;28;20043;-93
2021/10/09 14:13:05;;;;;;;25.65;7.00;;;;;;;11.34;42.65;101344.16;4964616;28;20388;-91
2021/10/09 14:15:51;;;;;;;14.13;5.43;;;;;;;11.33;43.32;101354.63;4963837;28;20483;-93
2021/10/09 14:18:36;;;;;;;13.50;5.65;;;;;;;11.25;43.77;101359.06;4963852;28;20045;-91
2021/10/09 14:21:20;;;;;;;33.85;11.25;;;;;;;11.26;44.91;101360.78;4964327;28;20058;-91
2021/10/09 14:24:05;;;;;;;14.98;5.80;;;;;;;11.15;43.18;101351.22;4963705;28;20050;-93
2021/10/09 14:26:50;;;;;;;23.25;8.75;;;;;;;11.25;41.45;101361.69;4950760;28;20039;-90
2021/10/09 14:29:34;;;;;;;22.80;12.57;;;;;;;11.06;42.91;101352.97;4957481;29;20051;-90
2021/10/09 14:32:19;;;;;;;14.90;5.13;;;;;;;11.05;43.05;101365.22;4958656;29;20075;-90
2021/10/09 14:35:07;;;;;;;17.83;9.68;;;;;;;11.02;44.24;101351.22;4971283;28;20058;-92
2021/10/09 14:37:51;;;;;;;11.35;7.43;;;;;;;10.94;45.80;101346.88;4956514;29;20047;-91
2021/10/09 14:40:37;;;;;;;10.38;5.80;;;;;;;10.98;46.37;101352.97;4955808;29;20436;-91
2021/10/09 14:43:21;;;;;;;8.45;4.22;;;;;;;10.84;43.39;101342.53;4955735;29;20054;-91
2021/10/09 14:46:30;;;;;;;15.65;7.90;;;;;;;10.82;45.55;101346.03;4955723;28;20045;-91
2021/10/09 14:49:16;;;;;;;18.35;7.00;;;;;;;10.80;45.26;101358.28;4955759;29;20108;-90
2021/10/09 15:18:59;;;;;;;42.38;16.75;;;;;;;10.15;50.09;101342.53;4958245;29;20040;-91
2021/10/09 15:21:43;;;;;;;36.17;17.08;;;;;;;10.04;50.04;101346.88;4970796;28;20047;-92
2021/10/09 15:24:28;;;;;;;36.42;18.85;;;;;;;9.91;50.78;101356.47;4958096;29;20044;-90
2021/10/09 15:27:13;;;;;;;22.67;12.93;;;;;;;9.76;51.76;101338.97;4944446;29;20043;-92
2021/10/09 15:29:58;;;;;;;34.13;16.92;;;;;;;9.76;51.70;101345.97;4943594;29;20055;-92
2021/10/09 15:32:43;;;;;;;47.30;21.33;;;;;;;9.60;52.06;101322.38;4957820;29;20057;-92
2021/10/09 15:35:28;;;;;;;35.30;17.33;;;;;;;9.54;52.70;101337.16;4943893;29;20109;-93
2021/10/09 15:38:14;;;;;;;38.72;18.27;;;;;;;9.52;53.30;101350.25;4955905;29;20429;-91
2021/10/09 15:40:58;;;;;;;29.65;13.65;;;;;;;9.37;53.98;101337.09;4941601;29;20050;-89
2021/10/09 15:43:44;;;;;;;42.47;19.60;;;;;;;9.22;54.88;101340.50;4955173;29;20047;-89
2021/10/09 15:46:29;;;;;;;87.97;34.65;;;;;;;9.14;55.20;101337.00;4955292;29;20493;-89
2021/10/09 15:49:13;;;;;;;58.83;24.75;;;;;;;9.05;55.56;101329.97;4941634;29;20070;-90
2021/10/09 15:52:02;;;;;;;66.03;28.38;;;;;;;9.01;56.49;101340.41;4955864;29;20043;-91
2021/10/09 15:54:47;;;;;;;45.47;21.30;;;;;;;8.75;57.45;101316.75;4955306;29;20560;-90
2021/10/09 15:57:31;;;;;;;62.95;26.98;;;;;;;8.68;57.39;101326.28;4956890;29;20381;-89
2021/10/09 16:00:16;;;;;;;49.33;22.45;;;;;;;8.87;55.18;101333.38;4956121;29;20436;-89
2021/10/09 16:03:02;;;;;;;47.10;21.33;;;;;;;8.63;57.27;101344.53;4955710;29;20054;-88
2021/10/09 16:05:47;;;;;;;37.00;15.55;;;;;;;8.43;58.49;101325.22;4957111;28;20432;-89
2021/10/09 16:08:35;;;;;;;39.97;17.58;;;;;;;8.52;57.92;101354.03;4954726;29;20126;-88
2021/10/09 16:11:20;;;;;;;26.77;14.10;;;;;;;8.56;58.14;101357.53;4955132;29;20054;-89
2021/10/09 16:14:11;;;;;;;21.92;11.82;;;;;;;8.28;59.45;101345.94;4955008;29;20359;-88
2021/10/09 16:16:56;;;;;;;48.92;23.45;;;;;;;8.28;58.96;101356.38;4956769;29;20051;-88
2021/10/09 16:19:40;;;;;;;47.00;21.95;;;;;;;7.99;61.06;101351.75;4956991;29;20576;-88
2021/10/09 16:22:26;;;;;;;58.65;26.88;;;;;;;7.90;61.22;101351.69;4957553;29;20102;-88
2021/10/09 16:25:10;;;;;;;114.72;48.20;;;;;;;7.63;62.38;101349.63;4957304;29;20044;-88
2021/10/09 16:27:55;;;;;;;287.88;105.88;;;;;;;7.68;62.54;101361.88;4959990;28;20047;-89
2021/10/09 16:30:40;;;;;;;348.05;137.55;;;;;;;7.50;62.95;101343.41;4979935;28;20118;-88
2021/10/09 16:33:24;;;;;;;223.73;93.03;;;;;;;7.28;65.23;101349.22;4965685;28;20051;-89
2021/10/09 16:36:08;;;;;;;207.38;87.05;;;;;;;6.96;65.76;101318.41;4979698;28;20047;-89
2021/10/09 16:38:54;;;;;;;230.50;101.28;;;;;;;7.12;66.66;101358.59;4964980;28;20356;-89
2021/10/09 16:41:38;;;;;;;118.47;52.53;;;;;;;6.81;67.24;101350.31;4979392;28;20038;-89
2021/10/09 16:44:23;;;;;;;70.47;31.33;;;;;;;6.72;68.42;101364.06;4951563;28;20039;-89
2021/10/09 16:47:08;;;;;;;57.10;25.73;;;;;;;6.62;68.00;101351.75;4965202;28;20043;-89
2021/10/09 16:49:53;;;;;;;60.65;26.75;;;;;;;6.54;68.31;101354.25;4979696;28;20055;-88
2021/10/09 16:52:38;;;;;;;45.85;22.17;;;;;;;6.69;67.21;101366.63;4979642;28;20039;-87
2021/10/09 16:55:23;;;;;;;53.17;27.25;;;;;;;6.53;67.68;101365.53;4965095;28;20494;-86
2021/10/09 16:58:07;;;;;;;36.38;19.27;;;;;;;6.22;69.97;101319.88;4961154;28;20469;-89
2021/10/09 17:00:52;;;;;;;32.90;16.63;;;;;;;6.13;69.40;101350.06;4965180;28;20042;-87
2021/10/09 17:03:37;;;;;;;35.78;19.15;;;;;;;6.17;70.12;101354.47;4964849;28;20049;-88
2021/10/09 17:06:22;;;;;;;38.33;20.33;;;;;;;5.84;70.86;101334.78;4952128;28;20043;-88
2021/10/09 17:09:07;;;;;;;42.88;22.83;;;;;;;5.90;71.57;101358.31;4965642;28;20046;-87
2021/10/09 17:11:51;;;;;;;50.90;25.58;;;;;;;5.61;73.02;101350.81;4966598;28;20083;-86
2021/10/09 17:14:36;;;;;;;64.90;29.98;;;;;;;5.66;72.50;101344.88;4968459;28;20082;-85
2021/10/09 17:17:21;;;;;;;60.03;29.08;;;;;;;5.75;72.16;101363.22;4983603;28;20054;-87
2021/10/09 17:20:06;;;;;;;52.67;26.35;;;;;;;5.43;73.10;101347.88;4985026;28;20038;-86
2021/10/09 17:22:51;;;;;;;54.08;26.42;;;;;;;5.48;73.02;101360.94;4971295;28;20038;-85
2021/10/09 17:25:38;;;;;;;155.23;48.78;;;;;;;5.53;71.46;101338.53;4985883;28;20042;-85
2021/10/09 17:28:23;;;;;;;146.85;49.85;;;;;;;5.30;73.02;101333.75;4986288;28;20059;-85
2021/10/09 17:31:08;;;;;;;121.97;37.53;;;;;;;5.75;71.85;101373.59;4958362;28;20042;-84
2021/10/09 17:33:53;;;;;;;271.42;75.32;;;;;;;5.59;71.67;101336.06;4958320;28;20047;-86
2021/10/09 17:36:37;;;;;;;225.82;65.38;;;;;;;5.46;73.27;101366.13;4987195;28;20039;-85
2021/10/09 17:39:22;;;;;;;122.80;43.45;;;;;;;5.72;71.34;101350.16;4985733;28;20408;-85